Time;durP1;ratioP1;P1;durP2;ratioP2;P2;SDS_P1;SDS_P2;PMS_P1;PMS_P2;Temp;Humidity;BMP_temperature;BMP_pressure;BME280_temperature;BME280_humidity;BME280_pressure;Samples;Min_cycle;Max_cycle;Signal;HPM_P1;HPM_P2
2023/05/25 00:01:04;;;;;;;10.93;4.35;;;;;;;13.51;51.83;102494.66;4992909;28;114577;-72
2023/05/25 00:03:31;;;;;;;10.95;4.50;;;;;;;13.49;51.85;102491.16;4991942;28;123589;-72
2023/05/25 00:06:02;;;;;;;13.32;4.68;;;;;;;13.48;51.82;102495.59;4990693;28;123146;-72
2023/05/25 00:08:29;;;;;;;9.65;4.10;;;;;;;13.47;52.17;102495.63;4983612;28;115552;-72
2023/05/25 00:10:56;;;;;;;10.43;4.18;;;;;;;13.47;51.97;102495.63;5006671;28;113857;-72
2023/05/25 00:13:23;;;;;;;7.82;3.97;;;;;;;13.48;51.74;102497.41;4992341;28;125498;-72
2023/05/25 00:15:50;;;;;;;12.90;4.47;;;;;;;13.47;52.20;102495.63;5009878;28;123649;-72
2023/05/25 00:18:17;;;;;;;12.35;4.30;;;;;;;13.44;52.12;102497.47;4986169;28;115349;-72
2023/05/25 00:20:46;;;;;;;9.80;3.72;;;;;;;13.41;52.23;102502.91;5003499;28;114831;-72
2023/05/25 00:23:14;;;;;;;10.52;3.70;;;;;;;13.39;52.20;102493.22;4992315;28;124931;-73
2023/05/25 00:25:41;;;;;;;7.05;4.10;;;;;;;13.36;52.16;102499.50;5021375;28;123848;-73
2023/05/25 00:28:10;;;;;;;8.63;4.05;;;;;;;13.34;52.41;102496.03;4992833;28;114128;-72
2023/05/25 00:30:38;;;;;;;9.32;4.10;;;;;;;13.33;52.35;102499.59;4962600;28;112437;-72
2023/05/25 00:33:05;;;;;;;12.02;4.50;;;;;;;13.32;52.33;102497.84;5009640;28;123898;-72
2023/05/25 00:35:33;;;;;;;8.70;3.67;;;;;;;13.30;52.51;102499.69;4991510;28;122818;-73
2023/05/25 00:38:00;;;;;;;9.43;4.03;;;;;;;13.30;52.43;102494.38;5010545;28;114448;-73
2023/05/25 00:40:27;;;;;;;13.20;3.75;;;;;;;13.27;52.53;102494.44;5010639;28;113310;-73
2023/05/25 00:42:55;;;;;;;10.30;4.03;;;;;;;13.27;52.54;102498.88;5010068;28;124235;-73
2023/05/25 00:45:22;;;;;;;8.43;3.78;;;;;;;13.25;52.67;102497.13;4972538;28;123136;-73
2023/05/25 00:47:50;;;;;;;8.75;3.70;;;;;;;13.25;52.66;102496.25;5001220;28;114216;-73
2023/05/25 00:50:32;;;;;;;10.40;4.03;;;;;;;13.24;52.90;102494.50;4977736;28;114072;-73
2023/05/25 00:53:00;;;;;;;9.13;4.07;;;;;;;13.25;52.76;102496.25;5006954;28;124056;-73
2023/05/25 00:55:32;;;;;;;11.02;4.10;;;;;;;13.24;52.72;102491.84;4990387;28;123998;-73
2023/05/25 00:58:02;;;;;;;9.93;4.10;;;;;;;13.25;52.85;102496.25;5024701;27;114922;-73
2023/05/25 01:00:31;;;;;;;8.68;3.92;;;;;;;13.24;52.96;102499.81;4997910;28;114016;-73
2023/05/25 01:03:00;;;;;;;9.35;3.70;;;;;;;13.24;52.80;102502.47;4985351;28;123328;-73
2023/05/25 01:05:30;;;;;;;9.38;4.13;;;;;;;13.25;52.98;102506.91;5002576;28;124380;-72
2023/05/25 01:08:00;;;;;;;11.68;4.50;;;;;;;13.25;52.95;102506.91;4996776;28;115076;-72
2023/05/25 01:10:32;;;;;;;10.07;4.05;;;;;;;13.25;53.17;102512.22;4991247;28;115168;-71
2023/05/25 01:13:01;;;;;;;8.75;4.38;;;;;;;13.27;53.10;102509.53;5006372;28;124125;-72
2023/05/25 01:15:29;;;;;;;11.57;4.40;;;;;;;13.28;53.05;102501.50;4979864;28;124189;-71
2023/05/25 01:17:58;;;;;;;12.20;4.07;;;;;;;13.29;52.90;102505.88;5007352;28;114496;-72
2023/05/25 01:20:26;;;;;;;9.75;4.32;;;;;;;13.29;53.08;102503.22;4978191;28;113123;-71
2023/05/25 01:23:03;;;;;;;9.38;3.90;;;;;;;13.31;53.03;102512.06;4991352;28;124721;-71
2023/05/25 01:25:42;;;;;;;11.95;4.32;;;;;;;13.30;53.01;102504.09;5006216;28;124113;-71
2023/05/25 01:28:16;;;;;;;12.88;4.80;;;;;;;13.30;53.15;102510.34;4984067;28;113424;-71
2023/05/25 01:30:47;;;;;;;13.52;3.92;;;;;;;13.30;53.00;102514.75;5008172;28;114047;-71
2023/05/25 01:33:17;;;;;;;7.82;3.92;;;;;;;13.27;53.10;102521.03;4990497;28;123695;-72
2023/05/25 01:35:46;;;;;;;11.27;4.32;;;;;;;13.26;52.91;102524.63;4962252;28;124178;-71
2023/05/25 01:38:13;;;;;;;12.50;4.25;;;;;;;13.23;53.04;102527.38;4988276;28;113720;-71
2023/05/25 01:40:40;;;;;;;9.95;4.53;;;;;;;13.21;53.04;102526.53;4988116;28;113446;-74
2023/05/25 01:43:07;;;;;;;12.57;4.25;;;;;;;13.18;52.91;102521.31;4987837;28;123543;-73
2023/05/25 01:45:35;;;;;;;8.45;4.13;;;;;;;13.15;53.17;102526.72;4983261;28;123847;-73
2023/05/25 01:48:21;;;;;;;11.82;4.43;;;;;;;13.11;53.21;102519.72;5000139;28;114332;-72
2023/05/25 01:50:59;;;;;;;8.90;4.50;;;;;;;13.08;53.05;102528.69;4996579;28;114020;-73
2023/05/25 01:53:39;;;;;;;11.65;4.88;;;;;;;13.04;53.14;102535.88;4987249;28;124173;-72
2023/05/25 01:56:08;;;;;;;9.38;3.97;;;;;;;13.02;52.91;102532.38;5008086;28;123169;-73
2023/05/25 01:58:38;;;;;;;8.38;4.28;;;;;;;12.99;53.12;102531.59;5007897;28;115242;-72
2023/05/25 02:01:07;;;;;;;9.90;4.50;;;;;;;12.98;53.19;102530.72;4990874;28;114235;-72
2023/05/25 02:03:39;;;;;;;9.00;4.43;;;;;;;12.95;53.32;102535.25;4961322;28;123503;-73
2023/05/25 02:06:07;;;;;;;9.23;4.22;;;;;;;12.94;53.12;102529.09;4994425;28;123340;-73
2023/05/25 02:08:35;;;;;;;8.30;3.83;;;;;;;12.91;53.01;102529.16;4990379;28;113171;-72
2023/05/25 02:11:02;;;;;;;9.02;4.43;;;;;;;12.88;53.20;102534.53;4990788;28;113570;-72
2023/05/25 02:13:29;;;;;;;8.93;4.43;;;;;;;12.87;53.29;102530.16;4992951;28;123319;-71
2023/05/25 02:15:56;;;;;;;9.25;4.15;;;;;;;12.84;53.24;102528.44;5003527;28;123658;-72
2023/05/25 02:18:25;;;;;;;8.48;4.20;;;;;;;12.82;53.77;102529.41;4985319;28;113320;-71
2023/05/25 02:20:53;;;;;;;8.73;3.92;;;;;;;12.80;53.19;102536.56;5008974;28;114566;-71
2023/05/25 02:23:21;;;;;;;9.88;4.18;;;;;;;12.76;53.01;102538.41;4989240;28;123277;-72
2023/05/25 02:25:50;;;;;;;8.10;4.53;;;;;;;12.73;53.30;102540.28;4990166;28;124635;-72
2023/05/25 02:28:17;;;;;;;11.02;4.00;;;;;;;12.66;53.44;102535.13;4991525;28;114469;-73
2023/05/25 02:30:45;;;;;;;8.45;3.97;;;;;;;12.63;53.24;102535.22;4994535;28;114096;-72
2023/05/25 02:33:12;;;;;;;7.30;4.32;;;;;;;12.61;53.32;102523.75;5010818;28;125000;-71
2023/05/25 02:35:40;;;;;;;8.68;3.85;;;;;;;12.59;53.34;102528.22;5011258;28;124697;-72
2023/05/25 02:38:09;;;;;;;8.82;4.47;;;;;;;12.58;53.35;102530.94;5039010;27;113939;-72
2023/05/25 02:40:36;;;;;;;9.95;3.92;;;;;;;12.52;53.30;102526.66;5012423;28;113753;-72
2023/05/25 02:43:03;;;;;;;11.18;3.92;;;;;;;12.50;53.28;102532.91;4993630;28;124348;-72
2023/05/25 02:45:31;;;;;;;8.38;4.15;;;;;;;12.45;53.23;102541.00;4972759;28;122867;-72
2023/05/25 02:47:58;;;;;;;8.60;4.15;;;;;;;12.40;53.41;102526.97;5004471;28;114984;-72
2023/05/25 02:50:26;;;;;;;9.98;4.55;;;;;;;12.36;53.46;102525.31;4985910;28;114091;-72
2023/05/25 02:52:56;;;;;;;12.05;4.97;;;;;;;12.31;53.48;102537.84;4991078;28;123167;-72
2023/05/25 02:55:24;;;;;;;10.63;4.40;;;;;;;12.27;53.62;102532.59;5000150;28;123144;-72
2023/05/25 02:57:52;;;;;;;12.23;5.00;;;;;;;12.24;53.57;102532.69;5007634;28;114365;-72
2023/05/25 03:00:37;;;;;;;9.80;4.67;;;;;;;12.19;53.56;102534.56;4999346;28;97455;-72
2023/05/25 03:03:04;;;;;;;11.68;5.10;;;;;;;12.14;53.63;102536.47;4991999;28;122477;-72
2023/05/25 03:05:34;;;;;;;8.35;4.18;;;;;;;12.10;53.74;102540.09;4993132;28;123713;-72
2023/05/25 03:08:01;;;;;;;11.45;4.70;;;;;;;12.08;53.96;102544.59;4996813;28;114566;-72
2023/05/25 03:10:30;;;;;;;9.18;4.95;;;;;;;12.05;53.97;102547.31;5024673;27;113771;-72
2023/05/25 03:12:57;;;;;;;9.93;4.97;;;;;;;12.02;54.13;102552.72;5009850;28;124527;-72
2023/05/25 03:15:24;;;;;;;11.32;5.38;;;;;;;12.01;54.24;102550.94;5013098;28;124042;-72
2023/05/25 03:17:52;;;;;;;13.20;4.55;;;;;;;12.00;54.21;102554.53;4992454;28;115160;-72
2023/05/25 03:20:23;;;;;;;8.65;4.57;;;;;;;11.99;54.14;102556.28;4985476;28;114345;-72
2023/05/25 03:22:51;;;;;;;9.85;4.90;;;;;;;11.99;54.32;102563.38;4988238;28;123301;-72
2023/05/25 03:25:18;;;;;;;11.68;4.75;;;;;;;11.98;54.40;102566.94;4991745;28;123416;-72
2023/05/25 03:27:46;;;;;;;8.88;4.80;;;;;;;11.96;54.25;102560.78;4992192;28;114142;-72
2023/05/25 03:30:13;;;;;;;11.63;4.75;;;;;;;11.95;54.40;102567.03;4992349;28;114861;-73
2023/05/25 03:32:41;;;;;;;15.73;5.40;;;;;;;11.93;54.23;102574.16;5009326;28;124506;-73
2023/05/25 03:35:09;;;;;;;7.68;4.72;;;;;;;11.93;54.38;102579.47;5014441;28;123872;-72
2023/05/25 03:37:37;;;;;;;11.88;4.68;;;;;;;11.93;54.48;102579.47;5009240;28;114995;-72
2023/05/25 03:40:05;;;;;;;10.60;5.05;;;;;;;11.91;54.35;102576.84;4994377;28;114263;-72
2023/05/25 03:42:32;;;;;;;7.75;4.28;;;;;;;11.90;54.45;102579.53;4992953;28;123806;-72
2023/05/25 03:45:00;;;;;;;12.10;4.88;;;;;;;11.90;54.52;102579.53;4980760;28;123526;-72
2023/05/25 03:47:27;;;;;;;12.95;5.15;;;;;;;11.89;54.31;102589.25;4983146;28;113109;-72
2023/05/25 03:49:54;;;;;;;11.00;5.03;;;;;;;11.87;54.37;102581.31;4991752;28;113409;-71
2023/05/25 03:52:21;;;;;;;9.57;5.13;;;;;;;11.87;54.77;102589.28;4982561;28;125485;-71
2023/05/25 03:54:48;;;;;;;12.50;5.28;;;;;;;11.86;54.64;102584.88;5002900;28;123156;-71
2023/05/25 03:57:15;;;;;;;10.50;5.03;;;;;;;11.85;54.56;102588.44;5002091;28;114178;-72
2023/05/25 03:59:42;;;;;;;14.70;5.40;;;;;;;11.84;54.51;102585.81;5008287;28;114465;-73
2023/05/25 04:02:10;;;;;;;9.35;4.63;;;;;;;11.82;54.52;102587.63;4992444;28;123513;-73
2023/05/25 04:04:40;;;;;;;8.38;4.78;;;;;;;11.79;54.68;102580.63;5018948;28;124673;-73
2023/05/25 04:07:07;;;;;;;9.77;5.15;;;;;;;11.77;54.62;102593.06;4979711;28;113126;-73
2023/05/25 04:09:34;;;;;;;10.90;5.18;;;;;;;11.77;54.83;102590.41;5010019;28;114173;-73
2023/05/25 04:12:02;;;;;;;10.50;5.18;;;;;;;11.78;54.97;102594.78;5014959;28;124247;-74
2023/05/25 04:14:29;;;;;;;10.63;4.70;;;;;;;11.77;54.96;102579.78;5003780;28;124686;-73
2023/05/25 04:16:56;;;;;;;10.07;5.38;;;;;;;11.80;54.96;102587.66;4989357;28;113450;-74
2023/05/25 04:19:23;;;;;;;9.57;5.28;;;;;;;11.80;54.96;102585.00;4994733;28;113907;-72
2023/05/25 04:21:50;;;;;;;13.20;5.32;;;;;;;11.84;55.04;102593.78;4999140;28;123564;-72
2023/05/25 04:24:17;;;;;;;11.88;5.57;;;;;;;11.84;55.40;102591.13;4986759;28;124045;-72
2023/05/25 04:26:45;;;;;;;12.07;5.78;;;;;;;11.86;55.42;102600.78;4992869;28;114278;-72
2023/05/25 04:29:13;;;;;;;12.57;5.78;;;;;;;11.90;55.64;102600.78;4991557;28;114286;-72
2023/05/25 04:32:08;;;;;;;11.10;6.10;;;;;;;11.93;55.37;102600.72;4992497;28;125097;-72
2023/05/25 04:34:49;;;;;;;13.73;6.20;;;;;;;11.96;55.46;102600.63;4971533;28;123716;-72
2023/05/25 04:37:22;;;;;;;15.65;6.63;;;;;;;12.01;55.69;102604.06;4991444;28;114335;-72
2023/05/25 04:39:49;;;;;;;12.57;6.25;;;;;;;12.05;55.64;102600.41;4994651;28;113276;-72
2023/05/25 04:42:17;;;;;;;11.68;5.80;;;;;;;12.10;55.64;102602.97;4993650;28;123251;-72
2023/05/25 04:44:44;;;;;;;17.40;6.57;;;;;;;12.17;56.15;102605.47;4987966;28;123903;-72
2023/05/25 04:47:12;;;;;;;14.32;6.50;;;;;;;12.27;56.43;102600.78;5004808;28;113799;-72
2023/05/25 04:49:39;;;;;;;13.93;6.13;;;;;;;12.39;57.00;102604.94;4978057;28;113208;-72
2023/05/25 04:52:07;;;;;;;14.85;6.10;;;;;;;12.51;56.82;102609.06;5010444;28;125177;-72
2023/05/25 04:54:35;;;;;;;11.38;5.75;;;;;;;12.62;56.89;102602.59;4997860;28;123564;-72
2023/05/25 04:57:02;;;;;;;12.75;5.57;;;;;;;12.75;56.79;102613.78;5008012;28;114096;-74
2023/05/25 04:59:31;;;;;;;14.13;5.82;;;;;;;12.88;56.83;102616.97;4963707;28;113675;-72
2023/05/25 05:01:59;;;;;;;13.90;5.40;;;;;;;12.98;56.67;102621.16;4990530;28;123716;-72
2023/05/25 05:04:26;;;;;;;12.48;5.70;;;;;;;13.10;56.38;102627.06;4993946;28;123591;-72
2023/05/25 05:06:54;;;;;;;14.52;5.53;;;;;;;13.18;56.52;102628.59;4991675;28;113635;-73
2023/05/25 05:09:26;;;;;;;15.90;6.25;;;;;;;13.28;56.32;102623.91;4979550;28;113175;-73
2023/05/25 05:11:56;;;;;;;14.02;5.47;;;;;;;13.36;56.36;102627.25;4994500;28;124477;-73
2023/05/25 05:14:23;;;;;;;13.05;5.70;;;;;;;13.44;56.17;102630.56;4992045;28;123785;-74
2023/05/25 05:16:51;;;;;;;11.20;5.72;;;;;;;13.49;56.25;102610.94;4992840;28;114786;-72
2023/05/25 05:19:21;;;;;;;9.93;5.82;;;;;;;13.54;56.28;102619.66;5003789;28;114253;-72
2023/05/25 05:21:48;;;;;;;12.70;5.15;;;;;;;13.59;56.24;102617.72;4988385;28;123809;-73
2023/05/25 05:24:17;;;;;;;11.77;5.63;;;;;;;13.64;56.22;102623.81;5009147;28;122364;-72
2023/05/25 05:26:45;;;;;;;14.45;5.40;;;;;;;13.72;56.35;102623.56;5005772;28;114565;-72
2023/05/25 05:29:51;;;;;;;10.77;5.40;;;;;;;13.80;56.19;102633.06;4997147;28;113794;-73
2023/05/25 05:32:18;;;;;;;12.85;5.20;;;;;;;13.88;56.30;102639.97;4990779;28;123963;-73
2023/05/25 05:34:45;;;;;;;10.57;5.57;;;;;;;13.95;56.23;102641.53;4988676;28;123077;-73
2023/05/25 05:37:27;;;;;;;12.43;5.22;;;;;;;14.02;56.20;102648.41;4990504;28;113905;-72
2023/05/25 05:39:55;;;;;;;11.68;5.20;;;;;;;14.06;56.20;102655.38;4989764;28;113791;-72
2023/05/25 05:42:22;;;;;;;13.02;5.20;;;;;;;14.11;56.18;102649.91;4991025;28;124078;-74
2023/05/25 05:44:49;;;;;;;11.32;5.38;;;;;;;14.17;56.40;102647.94;4995617;28;123470;-73
2023/05/25 05:47:16;;;;;;;11.30;5.45;;;;;;;14.26;56.18;102651.22;4994613;28;114141;-74
2023/05/25 05:49:43;;;;;;;13.48;5.30;;;;;;;14.32;56.16;102657.25;5010491;28;114170;-74
2023/05/25 05:52:11;;;;;;;12.48;4.82;;;;;;;14.40;56.34;102659.66;4991838;28;122587;-71
2023/05/25 05:54:38;;;;;;;15.02;5.15;;;;;;;14.49;56.60;102654.03;5012577;28;124621;-71
2023/05/25 05:57:09;;;;;;;11.98;4.75;;;;;;;14.57;56.14;102652.00;4973509;28;114728;-71
2023/05/25 05:59:37;;;;;;;11.13;5.20;;;;;;;14.67;56.08;102651.72;4979578;28;113297;-72
2023/05/25 06:02:05;;;;;;;12.20;5.40;;;;;;;14.74;56.18;102658.59;5006499;28;124138;-71
2023/05/25 06:04:33;;;;;;;9.82;5.07;;;;;;;14.83;56.04;102663.63;4988077;28;123512;-71
2023/05/25 06:07:00;;;;;;;11.90;4.68;;;;;;;14.91;55.83;102658.88;5012102;28;115625;-71
2023/05/25 06:09:27;;;;;;;9.88;4.85;;;;;;;15.01;55.82;102662.09;5015494;28;115815;-73
2023/05/25 06:11:58;;;;;;;11.52;4.88;;;;;;;15.10;55.57;102661.78;4996206;28;124264;-73
2023/05/25 06:14:25;;;;;;;9.82;4.70;;;;;;;15.19;55.40;102661.47;4990682;28;123674;-73
2023/05/25 06:16:57;;;;;;;14.25;4.65;;;;;;;15.28;55.34;102665.63;4982429;28;113394;-73
2023/05/25 06:19:24;;;;;;;7.47;4.45;;;;;;;15.38;55.12;102667.03;4992195;28;113557;-73
2023/05/25 06:21:51;;;;;;;8.77;4.80;;;;;;;15.48;55.09;102666.69;4989448;28;123024;-73
2023/05/25 06:24:20;;;;;;;10.20;4.50;;;;;;;15.57;54.91;102671.69;4985690;28;122985;-74
2023/05/25 06:26:47;;;;;;;11.13;4.88;;;;;;;15.66;54.84;102676.69;5010793;28;114356;-74
2023/05/25 06:29:15;;;;;;;13.27;4.78;;;;;;;15.75;54.75;102681.75;4989150;28;113766;-74
2023/05/25 06:31:43;;;;;;;7.60;4.00;;;;;;;15.86;54.68;102677.78;4990198;28;123015;-74
2023/05/25 06:34:11;;;;;;;9.27;4.00;;;;;;;15.98;54.43;102677.31;4981197;28;122948;-73
2023/05/25 06:36:38;;;;;;;7.28;4.03;;;;;;;16.12;54.44;102685.69;4978268;28;114326;-74
2023/05/25 06:39:07;;;;;;;9.20;4.30;;;;;;;16.25;54.20;102685.19;4989056;28;113450;-74
2023/05/25 06:41:37;;;;;;;11.57;4.35;;;;;;;16.41;53.90;102680.13;5009698;28;124087;-74
2023/05/25 06:44:05;;;;;;;11.13;4.60;;;;;;;16.53;53.61;102687.63;4969782;28;123442;-73
2023/05/25 06:46:40;;;;;;;8.95;3.90;;;;;;;16.62;53.40;102689.06;4986639;28;113961;-74
2023/05/25 06:49:08;;;;;;;13.98;4.60;;;;;;;16.74;53.31;102694.81;5008468;28;114853;-74
2023/05/25 06:51:36;;;;;;;10.45;4.45;;;;;;;16.84;53.32;102689.97;4988995;28;123689;-74
2023/05/25 06:54:03;;;;;;;9.10;4.90;;;;;;;16.98;53.04;102691.19;5007578;28;123881;-74
2023/05/25 06:56:30;;;;;;;8.80;4.60;;;;;;;17.08;52.65;102697.88;4988512;28;114891;-73
2023/05/25 06:58:58;;;;;;;8.48;4.13;;;;;;;17.13;52.83;102701.22;5008026;28;114803;-74
2023/05/25 07:01:25;;;;;;;8.73;4.70;;;;;;;17.22;52.63;102700.84;5007499;28;123686;-74
2023/05/25 07:03:52;;;;;;;11.52;4.57;;;;;;;17.34;52.31;102693.22;5006010;28;123460;-74
2023/05/25 07:06:19;;;;;;;12.10;4.75;;;;;;;17.39;52.17;102700.09;4990191;28;114069;-73
2023/05/25 07:08:46;;;;;;;14.35;4.88;;;;;;;17.45;51.90;102701.63;4990068;28;114035;-73
2023/05/25 07:11:14;;;;;;;8.45;4.68;;;;;;;17.50;51.76;102700.50;5007160;28;124479;-73
2023/05/25 07:13:41;;;;;;;8.57;4.40;;;;;;;17.56;51.73;102703.84;5018827;27;123801;-73
2023/05/25 07:16:08;;;;;;;10.27;5.00;;;;;;;17.64;51.94;102707.91;4990356;28;113653;-74
2023/05/25 07:18:38;;;;;;;13.63;4.15;;;;;;;17.74;51.60;102702.13;4994069;28;113778;-73
2023/05/25 07:21:08;;;;;;;9.23;4.50;;;;;;;17.86;51.49;102701.63;5009218;28;124026;-73
2023/05/25 07:23:36;;;;;;;8.07;4.72;;;;;;;17.96;51.47;102692.19;5017504;28;124428;-73
2023/05/25 07:26:03;;;;;;;8.52;4.38;;;;;;;18.07;51.07;102703.28;5011094;28;113927;-73
2023/05/25 07:28:32;;;;;;;8.93;3.97;;;;;;;18.17;50.97;102695.66;4993296;28;113761;-73
2023/05/25 07:31:00;;;;;;;13.02;4.70;;;;;;;18.24;50.34;102696.25;5010610;28;124559;-74
2023/05/25 07:33:27;;;;;;;11.95;4.35;;;;;;;18.32;50.67;102704.78;4975467;28;123090;-73
2023/05/25 07:35:54;;;;;;;9.05;4.00;;;;;;;18.41;50.52;102709.72;5010622;28;114183;-73
2023/05/25 07:38:21;;;;;;;10.02;4.07;;;;;;;18.52;50.28;102711.03;4993287;28;113902;-73
2023/05/25 07:40:48;;;;;;;9.15;4.35;;;;;;;18.61;50.11;102716.81;5010574;28;124459;-74
2023/05/25 07:43:15;;;;;;;12.07;4.50;;;;;;;18.65;49.58;102714.84;4991915;28;123933;-73
2023/05/25 07:45:43;;;;;;;9.98;4.15;;;;;;;18.66;49.41;102704.00;5019212;28;115294;-73
2023/05/25 07:48:10;;;;;;;10.75;4.43;;;;;;;18.71;49.39;102711.84;5010347;28;114955;-73
2023/05/25 07:50:37;;;;;;;12.52;4.53;;;;;;;18.78;49.54;102713.28;4992072;28;123966;-73
2023/05/25 07:53:04;;;;;;;10.70;4.40;;;;;;;18.89;49.31;102714.59;5009856;28;125235;-71
2023/05/25 07:55:32;;;;;;;10.70;4.38;;;;;;;18.92;49.13;102719.81;5009374;28;114268;-71
2023/05/25 07:57:59;;;;;;;11.05;4.22;;;;;;;18.91;48.94;102724.31;5009202;28;114707;-71
2023/05/25 08:00:26;;;;;;;10.75;4.50;;;;;;;18.94;48.67;102724.16;4990960;28;124524;-71
2023/05/25 08:02:54;;;;;;;10.43;4.10;;;;;;;19.00;48.41;102714.91;4998908;28;124053;-71
2023/05/25 08:05:22;;;;;;;12.05;4.22;;;;;;;19.06;48.74;102722.66;5003064;28;115176;-73
2023/05/25 08:07:49;;;;;;;11.77;4.53;;;;;;;19.16;48.74;102723.94;5008908;28;113685;-73
2023/05/25 08:10:16;;;;;;;10.20;4.38;;;;;;;19.23;48.43;102725.38;4977531;28;124003;-74
2023/05/25 08:12:43;;;;;;;11.65;4.45;;;;;;;19.28;48.14;102716.19;5010829;28;125724;-74
2023/05/25 08:15:16;;;;;;;10.50;4.70;;;;;;;19.32;48.03;102728.50;4978849;28;114043;-74
2023/05/25 08:17:43;;;;;;;12.23;4.47;;;;;;;19.35;47.92;102725.69;5010545;28;113771;-72
2023/05/25 08:20:11;;;;;;;14.38;4.63;;;;;;;19.39;48.03;102735.31;5009718;28;125335;-72
2023/05/25 08:22:38;;;;;;;13.75;4.60;;;;;;;19.43;47.76;102736.88;5001509;28;123283;-72
2023/05/25 08:25:06;;;;;;;11.57;4.38;;;;;;;19.45;47.50;102737.66;4994116;28;114916;-72
2023/05/25 08:27:34;;;;;;;11.35;4.50;;;;;;;19.41;47.49;102733.41;5010318;28;114200;-72
2023/05/25 08:30:04;;;;;;;13.18;4.70;;;;;;;19.39;47.23;102735.31;5009752;28;123761;-72
2023/05/25 08:32:32;;;;;;;8.77;4.22;;;;;;;19.45;47.65;102729.59;5021096;28;123891;-72
2023/05/25 08:35:00;;;;;;;12.80;4.80;;;;;;;19.53;47.40;102735.44;5009758;28;115265;-72
2023/05/25 08:37:28;;;;;;;12.80;5.07;;;;;;;19.54;47.30;102742.56;5022230;28;115769;-72
2023/05/25 08:39:55;;;;;;;8.98;4.65;;;;;;;19.54;47.17;102745.25;4973820;28;123585;-72
2023/05/25 08:42:22;;;;;;;7.72;4.28;;;;;;;19.61;47.45;102745.81;4984301;28;123227;-72
2023/05/25 08:44:50;;;;;;;8.75;4.35;;;;;;;19.69;47.14;102758.84;5003905;28;113912;-72
2023/05/25 08:47:21;;;;;;;9.85;4.82;;;;;;;19.72;47.09;102738.06;5010222;28;114125;-72
2023/05/25 08:49:49;;;;;;;12.07;4.43;;;;;;;19.76;46.74;102745.03;4994012;28;123866;-72
2023/05/25 08:52:23;;;;;;;10.30;4.25;;;;;;;19.75;46.65;102737.91;5021113;28;124919;-72
2023/05/25 08:54:54;;;;;;;6.68;3.75;;;;;;;19.78;46.62;102742.25;4981014;28;114061;-72
2023/05/25 08:57:33;;;;;;;10.25;3.85;;;;;;;19.78;46.41;102739.56;5018643;28;114141;-72
2023/05/25 09:00:14;;;;;;;10.15;3.50;;;;;;;19.76;46.25;102750.41;5018757;28;124201;-71
2023/05/25 09:03:06;;;;;;;9.30;3.60;;;;;;;19.75;46.19;102745.09;4988684;28;123823;-72
2023/05/25 09:05:34;;;;;;;9.70;3.40;;;;;;;19.77;46.12;102748.56;5022781;28;114635;-72
2023/05/25 09:08:07;;;;;;;9.40;3.65;;;;;;;19.80;46.09;102745.72;5019885;28;115834;-72
2023/05/25 09:10:36;;;;;;;9.82;3.45;;;;;;;19.86;45.91;102750.78;5022474;28;124493;-72
2023/05/25 09:13:03;;;;;;;8.73;3.55;;;;;;;19.95;45.93;102755.66;5009583;28;124075;-72
2023/05/25 09:15:48;;;;;;;9.30;3.85;;;;;;;20.00;45.80;102752.69;4994064;28;114118;-71
2023/05/25 09:18:15;;;;;;;7.78;3.30;;;;;;;20.02;45.48;102757.06;5009789;28;113628;-71
2023/05/25 09:20:42;;;;;;;10.52;3.47;;;;;;;20.01;45.07;102763.38;4990388;28;123547;-71
2023/05/25 09:23:13;;;;;;;8.98;3.17;;;;;;;19.98;45.20;102755.47;5008708;28;124159;-71
2023/05/25 09:25:42;;;;;;;8.77;3.63;;;;;;;19.96;45.09;102760.06;4990539;28;115143;-73
2023/05/25 09:28:10;;;;;;;9.70;3.45;;;;;;;19.94;45.22;102753.91;4963394;28;115201;-73
2023/05/25 09:30:40;;;;;;;12.57;3.80;;;;;;;19.96;45.20;102757.38;4991852;28;124396;-73
2023/05/25 09:33:16;;;;;;;11.18;3.28;;;;;;;19.96;45.02;102757.38;5008557;28;125217;-72
2023/05/25 09:35:45;;;;;;;7.22;3.35;;;;;;;19.98;45.02;102755.47;5009509;28;115537;-74
2023/05/25 09:38:15;;;;;;;9.60;3.55;;;;;;;19.99;45.13;102757.22;5008576;28;116608;-71
2023/05/25 09:40:43;;;;;;;10.13;3.72;;;;;;;20.03;45.11;102753.41;4982591;28;123105;-71
2023/05/25 09:43:15;;;;;;;11.10;3.75;;;;;;;20.09;45.52;102762.09;5008689;28;123684;-69
2023/05/25 09:45:58;;;;;;;12.32;4.13;;;;;;;20.15;45.43;102761.75;5012553;28;114901;-71
2023/05/25 09:48:26;;;;;;;11.73;3.53;;;;;;;20.18;45.04;102761.59;5005785;28;113949;-75
2023/05/25 09:50:53;;;;;;;11.73;4.18;;;;;;;20.18;45.09;102758.91;5008296;28;123732;-75
2023/05/25 09:53:20;;;;;;;12.85;3.95;;;;;;;20.16;45.10;102755.44;5008169;28;124122;-75
2023/05/25 09:55:49;;;;;;;10.38;3.67;;;;;;;20.14;44.75;102765.41;5008212;28;114717;-75
2023/05/25 09:58:23;;;;;;;9.48;3.33;;;;;;;20.09;44.55;102765.66;5006795;28;113826;-75
2023/05/25 10:00:54;;;;;;;12.52;4.05;;;;;;;20.05;44.74;102755.16;4991718;28;125278;-73
2023/05/25 10:03:21;;;;;;;12.65;4.03;;;;;;;20.07;45.09;102764.88;5002742;28;123717;-73
2023/05/25 10:05:50;;;;;;;9.10;3.00;;;;;;;20.12;44.70;102761.94;4977911;28;113362;-73
2023/05/25 10:08:20;;;;;;;8.82;3.35;;;;;;;20.15;44.77;102761.75;5009388;28;113419;-73
2023/05/25 10:10:48;;;;;;;10.43;3.13;;;;;;;20.19;44.43;102768.69;4988170;28;125151;-72
2023/05/25 10:13:21;;;;;;;9.50;3.60;;;;;;;20.20;44.46;102765.94;5014853;28;123896;-74
2023/05/25 10:15:52;;;;;;;9.73;3.72;;;;;;;20.26;44.68;102774.63;5002189;28;115008;-73
2023/05/25 10:18:24;;;;;;;8.45;3.40;;;;;;;20.32;44.35;102769.75;5008888;28;115165;-73
2023/05/25 10:21:00;;;;;;;13.93;3.65;;;;;;;20.36;44.21;102771.34;4990872;28;123608;-76
2023/05/25 10:23:40;;;;;;;11.63;4.20;;;;;;;20.39;44.32;102765.78;5009575;28;123852;-76
2023/05/25 10:26:09;;;;;;;10.90;3.42;;;;;;;20.47;44.15;102764.47;4989603;28;113995;-73
2023/05/25 10:28:38;;;;;;;8.45;3.28;;;;;;;20.50;44.09;102764.31;4971881;28;112936;-74
2023/05/25 10:31:05;;;;;;;11.82;3.63;;;;;;;20.51;43.74;102768.72;4987316;28;124697;-74
2023/05/25 10:33:33;;;;;;;10.88;4.30;;;;;;;20.53;43.82;102772.19;4990472;28;125128;-74
2023/05/25 10:36:02;;;;;;;11.40;4.18;;;;;;;20.53;43.65;102774.88;4987181;28;113216;-73
2023/05/25 10:38:43;;;;;;;9.45;3.90;;;;;;;20.53;43.83;102772.19;5005972;28;114291;-73
2023/05/25 10:41:11;;;;;;;10.02;4.22;;;;;;;20.54;43.73;102763.19;4986744;28;124180;-73
2023/05/25 10:43:39;;;;;;;17.70;4.68;;;;;;;20.51;43.70;102764.22;5003601;28;124420;-74
2023/05/25 10:46:07;;;;;;;12.93;4.68;;;;;;;20.52;43.81;102765.09;4988789;28;113389;-74
2023/05/25 10:48:36;;;;;;;13.07;4.63;;;;;;;20.55;44.00;102765.78;5006736;28;114412;-73
2023/05/25 10:51:04;;;;;;;9.45;4.53;;;;;;;20.61;43.88;102761.91;4993950;28;124819;-74
2023/05/25 10:53:31;;;;;;;13.77;5.15;;;;;;;20.70;43.98;102758.69;5011336;28;125085;-74
2023/05/25 10:55:58;;;;;;;10.25;4.18;;;;;;;20.76;43.81;102755.66;5021806;28;114705;-73
2023/05/25 10:58:27;;;;;;;8.00;4.20;;;;;;;20.87;44.06;102754.13;4983892;28;113125;-74
2023/05/25 11:01:00;;;;;;;11.43;4.13;;;;;;;21.03;43.78;102765.75;4996851;28;123786;-76
2023/05/25 11:03:46;;;;;;;9.90;4.50;;;;;;;21.15;43.52;102756.97;5011421;28;124024;-76
2023/05/25 11:06:14;;;;;;;8.07;4.30;;;;;;;21.27;43.65;102757.19;5010193;28;115673;-76
2023/05/25 11:08:50;;;;;;;9.80;4.18;;;;;;;21.41;43.25;102759.91;4986846;28;114160;-76
2023/05/25 11:11:17;;;;;;;10.82;4.47;;;;;;;21.53;42.88;102759.22;5016761;28;124021;-74
2023/05/25 11:13:46;;;;;;;10.95;4.35;;;;;;;21.61;42.34;102752.47;5011947;28;123981;-74
2023/05/25 11:16:21;;;;;;;8.43;3.88;;;;;;;21.63;42.38;102753.25;5019380;28;114504;-74
2023/05/25 11:18:48;;;;;;;10.30;4.20;;;;;;;21.67;42.44;102744.00;4991108;28;114030;-74
2023/05/25 11:21:18;;;;;;;12.50;3.90;;;;;;;21.74;42.17;102739.97;4980853;28;124588;-74